sensor_id;sensor_type;location;lat;lon;timestamp;pressure;altitude;pressure_sealevel;temperature;humidity
74573;BME280;63071;51.526;-0.134;2022-10-26T00:02:21;100362.56;;;25.08;42.53
74573;BME280;63071;51.526;-0.134;2022-10-26T00:04:46;100355.31;;;25.09;42.29
74573;BME280;63071;51.526;-0.134;2022-10-26T00:07:11;100345.00;;;25.07;42.63
74573;BME280;63071;51.526;-0.134;2022-10-26T00:09:37;100347.66;;;25.07;42.54
74573;BME280;63071;51.526;-0.134;2022-10-26T00:12:02;100323.59;;;25.07;42.57
74573;BME280;63071;51.526;-0.134;2022-10-26T00:14:28;100317.13;;;25.05;42.49
74573;BME280;63071;51.526;-0.134;2022-10-26T00:16:54;100322.88;;;24.99;42.99
74573;BME280;63071;51.526;-0.134;2022-10-26T00:19:19;100313.38;;;24.95;42.79
74573;BME280;63071;51.526;-0.134;2022-10-26T00:21:45;100326.69;;;25.02;42.55
74573;BME280;63071;51.526;-0.134;2022-10-26T00:24:10;100328.22;;;25.03;42.07
74573;BME280;63071;51.526;-0.134;2022-10-26T00:26:37;100321.31;;;25.06;42.48
74573;BME280;63071;51.526;-0.134;2022-10-26T00:29:02;100328.19;;;25.07;42.28
74573;BME280;63071;51.526;-0.134;2022-10-26T00:31:28;100317.91;;;25.02;42.75
74573;BME280;63071;51.526;-0.134;2022-10-26T00:33:55;100336.97;;;25.04;42.31
74573;BME280;63071;51.526;-0.134;2022-10-26T00:36:22;100328.56;;;25.05;42.58
74573;BME280;63071;51.526;-0.134;2022-10-26T00:38:53;100320.56;;;25.02;43.09
74573;BME280;63071;51.526;-0.134;2022-10-26T00:41:22;100317.88;;;25.05;42.67
74573;BME280;63071;51.526;-0.134;2022-10-26T00:43:49;100325.16;;;25.05;42.28
74573;BME280;63071;51.526;-0.134;2022-10-26T00:46:28;100317.91;;;25.02;42.44
74573;BME280;63071;51.526;-0.134;2022-10-26T00:49:00;100320.94;;;25.04;42.68
74573;BME280;63071;51.526;-0.134;2022-10-26T00:51:31;100306.09;;;24.99;42.70
74573;BME280;63071;51.526;-0.134;2022-10-26T00:54:02;100304.53;;;25.02;42.87
74573;BME280;63071;51.526;-0.134;2022-10-26T00:56:30;100304.16;;;25.03;42.37
74573;BME280;63071;51.526;-0.134;2022-10-26T00:59:01;100307.22;;;25.02;43.08
74573;BME280;63071;51.526;-0.134;2022-10-26T01:01:28;100304.97;;;24.96;43.31
74573;BME280;63071;51.526;-0.134;2022-10-26T01:03:55;100300.38;;;24.93;43.06
74573;BME280;63071;51.526;-0.134;2022-10-26T01:06:21;100302.66;;;24.98;42.63
74573;BME280;63071;51.526;-0.134;2022-10-26T01:08:47;100303.78;;;25.01;43.31
74573;BME280;63071;51.526;-0.134;2022-10-26T01:11:13;100297.69;;;25.01;42.97
74573;BME280;63071;51.526;-0.134;2022-10-26T01:13:43;100295.03;;;24.97;42.81
74573;BME280;63071;51.526;-0.134;2022-10-26T01:16:36;100291.22;;;24.98;42.49
74573;BME280;63071;51.526;-0.134;2022-10-26T01:21:58;100287.75;;;24.97;42.58
74573;BME280;63071;51.526;-0.134;2022-10-26T01:24:31;100296.16;;;24.99;42.92
74573;BME280;63071;51.526;-0.134;2022-10-26T01:27:35;100294.28;;;24.96;43.31
74573;BME280;63071;51.526;-0.134;2022-10-26T01:36:08;100289.31;;;24.91;43.50
74573;BME280;63071;51.526;-0.134;2022-10-26T01:41:43;100278.63;;;24.95;43.02
74573;BME280;63071;51.526;-0.134;2022-10-26T01:44:20;100266.44;;;24.90;42.86
74573;BME280;63071;51.526;-0.134;2022-10-26T01:46:50;100274.38;;;24.97;43.03
74573;BME280;63071;51.526;-0.134;2022-10-26T01:49:22;100278.22;;;24.96;43.53
74573;BME280;63071;51.526;-0.134;2022-10-26T01:51:50;100277.50;;;24.89;43.26
74573;BME280;63071;51.526;-0.134;2022-10-26T01:54:16;100282.84;;;24.89;43.74
74573;BME280;63071;51.526;-0.134;2022-10-26T01:56:46;100279.44;;;24.88;43.44
74573;BME280;63071;51.526;-0.134;2022-10-26T01:59:25;100282.06;;;24.92;43.72
74573;BME280;63071;51.526;-0.134;2022-10-26T02:02:18;100287.00;;;24.97;43.43
74573;BME280;63071;51.526;-0.134;2022-10-26T02:08:22;100291.63;;;24.89;43.27
74573;BME280;63071;51.526;-0.134;2022-10-26T02:16:20;100277.13;;;24.90;43.79
74573;BME280;63071;51.526;-0.134;2022-10-26T02:19:15;100278.25;;;24.93;43.64
74573;BME280;63071;51.526;-0.134;2022-10-26T02:21:49;100274.03;;;24.92;43.28
74573;BME280;63071;51.526;-0.134;2022-10-26T02:24:18;100271.00;;;24.90;43.40
74573;BME280;63071;51.526;-0.134;2022-10-26T02:26:49;100264.53;;;24.87;43.33
74573;BME280;63071;51.526;-0.134;2022-10-26T02:29:18;100267.56;;;24.89;43.92
74573;BME280;63071;51.526;-0.134;2022-10-26T02:31:48;100266.44;;;24.87;43.83
74573;BME280;63071;51.526;-0.134;2022-10-26T02:34:20;100267.22;;;24.87;43.56
74573;BME280;63071;51.526;-0.134;2022-10-26T02:36:50;100251.16;;;24.87;43.62
74573;BME280;63071;51.526;-0.134;2022-10-26T02:39:19;100254.22;;;24.89;43.76
74573;BME280;63071;51.526;-0.134;2022-10-26T02:41:48;100241.28;;;24.84;44.01
74573;BME280;63071;51.526;-0.134;2022-10-26T02:44:22;100256.50;;;24.87;43.97
74573;BME280;63071;51.526;-0.134;2022-10-26T02:46:50;100252.75;;;24.77;44.42
74573;BME280;63071;51.526;-0.134;2022-10-26T02:49:17;100265.66;;;24.90;44.15
74573;BME280;63071;51.526;-0.134;2022-10-26T02:56:59;100264.56;;;24.84;44.13
74573;BME280;63071;51.526;-0.134;2022-10-26T02:59:31;100256.53;;;24.84;44.35
74573;BME280;63071;51.526;-0.134;2022-10-26T03:01:59;100248.13;;;24.85;43.70
74573;BME280;63071;51.526;-0.134;2022-10-26T03:04:32;100227.50;;;24.86;44.26
74573;BME280;63071;51.526;-0.134;2022-10-26T03:06:59;100235.50;;;24.89;43.89
74573;BME280;63071;51.526;-0.134;2022-10-26T03:09:25;100231.69;;;24.87;43.82
74573;BME280;63071;51.526;-0.134;2022-10-26T03:11:51;100235.56;;;24.82;44.12
74573;BME280;63071;51.526;-0.134;2022-10-26T03:14:16;100230.94;;;24.86;44.09
74573;BME280;63071;51.526;-0.134;2022-10-26T03:16:42;100220.28;;;24.83;43.77
74573;BME280;63071;51.526;-0.134;2022-10-26T03:19:07;100220.66;;;24.85;43.83
74573;BME280;63071;51.526;-0.134;2022-10-26T03:21:33;100218.72;;;24.85;43.86
74573;BME280;63071;51.526;-0.134;2022-10-26T03:23:58;100234.00;;;24.88;44.23
74573;BME280;63071;51.526;-0.134;2022-10-26T03:26:24;100235.88;;;24.91;44.36
74573;BME280;63071;51.526;-0.134;2022-10-26T03:28:49;100224.81;;;24.89;44.32
74573;BME280;63071;51.526;-0.134;2022-10-26T03:31:15;100221.78;;;24.84;44.27
74573;BME280;63071;51.526;-0.134;2022-10-26T03:33:40;100226.75;;;24.85;44.57
74573;BME280;63071;51.526;-0.134;2022-10-26T03:36:06;100215.31;;;24.85;44.40
74573;BME280;63071;51.526;-0.134;2022-10-26T03:38:31;100225.97;;;24.88;44.30
74573;BME280;63071;51.526;-0.134;2022-10-26T03:40:57;100226.34;;;24.90;44.48
74573;BME280;63071;51.526;-0.134;2022-10-26T03:43:22;100215.28;;;24.88;44.13
74573;BME280;63071;51.526;-0.134;2022-10-26T03:45:48;100220.25;;;24.86;44.36
74573;BME280;63071;51.526;-0.134;2022-10-26T03:48:13;100205.09;;;24.72;44.61
74573;BME280;63071;51.526;-0.134;2022-10-26T03:50:39;100236.31;;;24.83;44.47
74573;BME280;63071;51.526;-0.134;2022-10-26T03:53:04;100238.25;;;24.82;44.69
74573;BME280;63071;51.526;-0.134;2022-10-26T03:55:30;100240.47;;;24.87;44.11
74573;BME280;63071;51.526;-0.134;2022-10-26T03:57:55;100242.78;;;24.85;44.72
74573;BME280;63071;51.526;-0.134;2022-10-26T04:00:21;100256.50;;;24.87;44.11
74573;BME280;63071;51.526;-0.134;2022-10-26T04:02:54;100254.97;;;24.90;44.37
74573;BME280;63071;51.526;-0.134;2022-10-26T04:05:20;100251.16;;;24.91;44.43
74573;BME280;63071;51.526;-0.134;2022-10-26T04:07:56;100246.19;;;24.89;44.16
74573;BME280;63071;51.526;-0.134;2022-10-26T04:10:24;100245.06;;;24.87;44.50
74573;BME280;63071;51.526;-0.134;2022-10-26T04:12:50;100251.50;;;24.93;44.15
74573;BME280;63071;51.526;-0.134;2022-10-26T04:15:16;100245.81;;;24.91;44.52
74573;BME280;63071;51.526;-0.134;2022-10-26T04:17:42;100248.09;;;24.92;44.95
74573;BME280;63071;51.526;-0.134;2022-10-26T04:20:09;100250.75;;;24.92;44.12
74573;BME280;63071;51.526;-0.134;2022-10-26T04:22:35;100251.91;;;24.91;44.38
74573;BME280;63071;51.526;-0.134;2022-10-26T04:25:02;100251.16;;;24.87;44.60
74573;BME280;63071;51.526;-0.134;2022-10-26T04:27:27;100242.81;;;24.82;44.93
74573;BME280;63071;51.526;-0.134;2022-10-26T04:29:53;100248.88;;;24.86;44.49
74573;BME280;63071;51.526;-0.134;2022-10-26T04:32:18;100237.47;;;24.82;45.03
74573;BME280;63071;51.526;-0.134;2022-10-26T04:34:44;100245.09;;;24.79;44.78
74573;BME280;63071;51.526;-0.134;2022-10-26T04:37:09;100250.03;;;24.85;44.90
74573;BME280;63071;51.526;-0.134;2022-10-26T04:39:35;100250.44;;;24.79;45.28
74573;BME280;63071;51.526;-0.134;2022-10-26T04:42:00;100250.44;;;24.79;44.93
74573;BME280;63071;51.526;-0.134;2022-10-26T04:44:25;100255.03;;;24.79;45.03
74573;BME280;63071;51.526;-0.134;2022-10-26T04:46:51;100260.34;;;24.86;44.99
74573;BME280;63071;51.526;-0.134;2022-10-26T04:49:16;100257.31;;;24.84;45.17
74573;BME280;63071;51.526;-0.134;2022-10-26T04:51:42;100253.84;;;24.84;45.33
74573;BME280;63071;51.526;-0.134;2022-10-26T04:54:07;100266.09;;;24.85;45.39
74573;BME280;63071;51.526;-0.134;2022-10-26T04:56:33;100261.13;;;24.83;45.08
74573;BME280;63071;51.526;-0.134;2022-10-26T04:58:58;100273.31;;;24.88;45.17
74573;BME280;63071;51.526;-0.134;2022-10-26T05:01:24;100266.44;;;24.87;45.13
74573;BME280;63071;51.526;-0.134;2022-10-26T05:03:52;100276.03;;;24.84;45.73
74573;BME280;63071;51.526;-0.134;2022-10-26T05:06:19;100274.09;;;24.85;45.49
74573;BME280;63071;51.526;-0.134;2022-10-26T05:08:45;100283.63;;;24.86;45.78
74573;BME280;63071;51.526;-0.134;2022-10-26T05:11:10;100288.22;;;24.85;45.11
74573;BME280;63071;51.526;-0.134;2022-10-26T05:13:36;100288.22;;;24.85;45.95
74573;BME280;63071;51.526;-0.134;2022-10-26T05:16:01;100293.94;;;24.87;45.63
74573;BME280;63071;51.526;-0.134;2022-10-26T05:18:27;100294.69;;;24.88;45.24
74573;BME280;63071;51.526;-0.134;2022-10-26T05:20:53;100303.06;;;24.93;45.70
74573;BME280;63071;51.526;-0.134;2022-10-26T05:23:19;100305.72;;;24.97;45.38
74573;BME280;63071;51.526;-0.134;2022-10-26T05:25:44;100324.44;;;24.97;45.08
74573;BME280;63071;51.526;-0.134;2022-10-26T05:28:11;100306.13;;;24.92;45.32
74573;BME280;63071;51.526;-0.134;2022-10-26T05:30:41;100314.91;;;24.96;45.21
74573;BME280;63071;51.526;-0.134;2022-10-26T05:33:09;100328.28;;;24.96;45.56
74573;BME280;63071;51.526;-0.134;2022-10-26T05:35:35;100314.19;;;24.88;45.22
74573;BME280;63071;51.526;-0.134;2022-10-26T05:38:09;100325.25;;;24.90;45.72
74573;BME280;63071;51.526;-0.134;2022-10-26T05:40:35;100326.38;;;24.89;45.80
74573;BME280;63071;51.526;-0.134;2022-10-26T05:43:01;100321.41;;;24.88;46.00
74573;BME280;63071;51.526;-0.134;2022-10-26T05:45:27;100322.19;;;24.88;45.25
74573;BME280;63071;51.526;-0.134;2022-10-26T05:47:53;100335.97;;;24.83;45.61
74573;BME280;63071;51.526;-0.134;2022-10-26T05:50:18;100330.25;;;24.81;46.08
74573;BME280;63071;51.526;-0.134;2022-10-26T05:52:46;100335.59;;;24.77;45.75
74573;BME280;63071;51.526;-0.134;2022-10-26T05:55:13;100337.16;;;24.75;45.87
74573;BME280;63071;51.526;-0.134;2022-10-26T05:57:40;100354.38;;;24.70;46.77
74573;BME280;63071;51.526;-0.134;2022-10-26T06:00:08;100349.34;;;24.83;46.05
74573;BME280;63071;51.526;-0.134;2022-10-26T06:05:25;100352.72;;;24.94;44.61
74573;BME280;63071;51.526;-0.134;2022-10-26T06:07:51;100363.06;;;24.85;45.43
74573;BME280;63071;51.526;-0.134;2022-10-26T06:10:17;100359.25;;;24.86;45.14
74573;BME280;63071;51.526;-0.134;2022-10-26T06:12:43;100360.81;;;24.80;45.21
74573;BME280;63071;51.526;-0.134;2022-10-26T06:15:19;100358.16;;;24.80;45.71
74573;BME280;63071;51.526;-0.134;2022-10-26T06:17:59;100355.06;;;24.85;45.29
74573;BME280;63071;51.526;-0.134;2022-10-26T06:29:11;100373.28;;;25.05;45.17
74573;BME280;63071;51.526;-0.134;2022-10-26T06:31:43;100366.03;;;25.02;45.15
74573;BME280;63071;51.526;-0.134;2022-10-26T06:34:12;100369.50;;;25.02;45.26
74573;BME280;63071;51.526;-0.134;2022-10-26T06:36:40;100367.56;;;25.06;44.84
74573;BME280;63071;51.526;-0.134;2022-10-26T06:39:09;100373.28;;;25.08;44.55
74573;BME280;63071;51.526;-0.134;2022-10-26T06:41:37;100375.16;;;25.08;44.89
74573;BME280;63071;51.526;-0.134;2022-10-26T06:44:04;100369.06;;;25.07;45.00
74573;BME280;63071;51.526;-0.134;2022-10-26T06:46:47;100372.47;;;25.08;44.49
74573;BME280;63071;51.526;-0.134;2022-10-26T06:52:00;100385.47;;;25.06;44.75
74573;BME280;63071;51.526;-0.134;2022-10-26T06:54:51;100389.31;;;25.05;44.35
74573;BME280;63071;51.526;-0.134;2022-10-26T06:57:32;100390.84;;;25.06;44.58
74573;BME280;63071;51.526;-0.134;2022-10-26T07:00:05;100393.91;;;25.04;44.87
74573;BME280;63071;51.526;-0.134;2022-10-26T07:02:31;100405.75;;;25.07;44.60
74573;BME280;63071;51.526;-0.134;2022-10-26T07:04:56;100390.47;;;25.04;44.62
74573;BME280;63071;51.526;-0.134;2022-10-26T07:07:26;100393.50;;;25.06;44.77
74573;BME280;63071;51.526;-0.134;2022-10-26T07:09:53;100403.81;;;25.07;44.77
74573;BME280;63071;51.526;-0.134;2022-10-26T07:12:19;100407.66;;;25.06;44.53
74573;BME280;63071;51.526;-0.134;2022-10-26T07:14:44;100407.66;;;25.06;44.55
74573;BME280;63071;51.526;-0.134;2022-10-26T07:17:10;100406.13;;;25.05;44.18
74573;BME280;63071;51.526;-0.134;2022-10-26T07:19:36;100406.09;;;25.09;44.81
74573;BME280;63071;51.526;-0.134;2022-10-26T07:22:01;100410.72;;;25.08;44.36
74573;BME280;63071;51.526;-0.134;2022-10-26T07:24:28;100409.16;;;25.11;44.75
74573;BME280;63071;51.526;-0.134;2022-10-26T07:26:55;100416.81;;;25.09;44.39
74573;BME280;63071;51.526;-0.134;2022-10-26T07:29:22;100407.66;;;25.06;44.65
74573;BME280;63071;51.526;-0.134;2022-10-26T07:31:47;100420.22;;;25.09;44.33
74573;BME280;63071;51.526;-0.134;2022-10-26T07:34:13;100419.88;;;25.04;44.38
74573;BME280;63071;51.526;-0.134;2022-10-26T07:36:38;100434.00;;;25.08;44.20
74573;BME280;63071;51.526;-0.134;2022-10-26T07:39:05;100423.28;;;25.08;44.83
74573;BME280;63071;51.526;-0.134;2022-10-26T07:41:30;100435.91;;;25.07;44.59
74573;BME280;63071;51.526;-0.134;2022-10-26T07:43:57;100438.94;;;25.09;44.17
74573;BME280;63071;51.526;-0.134;2022-10-26T07:46:24;100436.28;;;25.09;44.07
74573;BME280;63071;51.526;-0.134;2022-10-26T07:48:52;100444.66;;;25.11;44.47
74573;BME280;63071;51.526;-0.134;2022-10-26T07:51:18;100451.94;;;25.11;44.08
74573;BME280;63071;51.526;-0.134;2022-10-26T07:53:44;100448.13;;;25.08;44.41
74573;BME280;63071;51.526;-0.134;2022-10-26T07:56:10;100453.50;;;25.08;43.80
74573;BME280;63071;51.526;-0.134;2022-10-26T07:58:36;100443.94;;;25.07;44.40
74573;BME280;63071;51.526;-0.134;2022-10-26T08:01:08;100456.91;;;25.09;44.31
74573;BME280;63071;51.526;-0.134;2022-10-26T08:03:36;100454.25;;;25.02;44.49
74573;BME280;63071;51.526;-0.134;2022-10-26T08:06:02;100469.16;;;25.06;43.98
74573;BME280;63071;51.526;-0.134;2022-10-26T08:08:30;100466.47;;;25.06;44.27
74573;BME280;63071;51.526;-0.134;2022-10-26T08:10:57;100463.03;;;25.06;44.68
74573;BME280;63071;51.526;-0.134;2022-10-26T08:13:22;100464.56;;;25.03;44.54
74573;BME280;63071;51.526;-0.134;2022-10-26T08:15:48;100475.66;;;25.05;44.31
74573;BME280;63071;51.526;-0.134;2022-10-26T08:18:13;100473.75;;;25.02;44.01
74573;BME280;63071;51.526;-0.134;2022-10-26T08:20:39;100478.69;;;25.04;44.46
74573;BME280;63071;51.526;-0.134;2022-10-26T08:23:04;100481.00;;;25.05;43.94
74573;BME280;63071;51.526;-0.134;2022-10-26T08:25:33;100491.31;;;25.07;44.10
74573;BME280;63071;51.526;-0.134;2022-10-26T08:28:02;100484.41;;;25.06;43.94
74573;BME280;63071;51.526;-0.134;2022-10-26T08:30:32;100490.50;;;25.10;44.04
74573;BME280;63071;51.526;-0.134;2022-10-26T08:33:03;100498.53;;;25.10;43.73
74573;BME280;63071;51.526;-0.134;2022-10-26T08:35:31;100486.69;;;25.11;44.12
74573;BME280;63071;51.526;-0.134;2022-10-26T08:37:56;100509.53;;;25.37;43.82
74573;BME280;63071;51.526;-0.134;2022-10-26T08:40:30;100490.00;;;25.44;43.37
74573;BME280;63071;51.526;-0.134;2022-10-26T08:46:23;100497.38;;;25.22;43.87
74573;BME280;63071;51.526;-0.134;2022-10-26T08:49:01;100504.63;;;25.17;44.21
74573;BME280;63071;51.526;-0.134;2022-10-26T08:51:34;100505.00;;;25.16;43.94
74573;BME280;63071;51.526;-0.134;2022-10-26T08:54:08;100514.22;;;25.08;44.61
74573;BME280;63071;51.526;-0.134;2022-10-26T08:56:39;100515.31;;;25.14;44.52
74573;BME280;63071;51.526;-0.134;2022-10-26T08:59:19;100508.09;;;25.11;44.21
74573;BME280;63071;51.526;-0.134;2022-10-26T09:01:51;100514.97;;;25.12;43.99
74573;BME280;63071;51.526;-0.134;2022-10-26T09:04:21;100510.03;;;24.99;44.46
74573;BME280;63071;51.526;-0.134;2022-10-26T09:09:56;100510.03;;;25.10;44.88
74573;BME280;63071;51.526;-0.134;2022-10-26T09:12:27;100511.56;;;25.01;44.97
74573;BME280;63071;51.526;-0.134;2022-10-26T09:18:26;100492.44;;;25.13;44.72
74573;BME280;63071;51.526;-0.134;2022-10-26T09:26:53;100503.13;;;25.09;45.04
74573;BME280;63071;51.526;-0.134;2022-10-26T09:29:26;100504.63;;;25.14;45.02
74573;BME280;63071;51.526;-0.134;2022-10-26T09:31:56;100510.41;;;25.12;44.79
74573;BME280;63071;51.526;-0.134;2022-10-26T09:34:33;100514.19;;;25.22;44.86
74573;BME280;63071;51.526;-0.134;2022-10-26T09:37:23;100523.72;;;25.16;45.25
74573;BME280;63071;51.526;-0.134;2022-10-26T09:43:18;100532.13;;;25.18;44.81
74573;BME280;63071;51.526;-0.134;2022-10-26T09:45:50;100526.03;;;25.21;44.74
74573;BME280;63071;51.526;-0.134;2022-10-26T09:48:38;100524.88;;;25.26;44.70
74573;BME280;63071;51.526;-0.134;2022-10-26T09:51:05;100539.78;;;25.27;44.34
74573;BME280;63071;51.526;-0.134;2022-10-26T09:53:32;100519.50;;;25.26;44.14
74573;BME280;63071;51.526;-0.134;2022-10-26T09:56:05;100539.78;;;25.27;44.69
74573;BME280;63071;51.526;-0.134;2022-10-26T09:58:39;100540.53;;;25.20;44.49
74573;BME280;63071;51.526;-0.134;2022-10-26T10:01:06;100529.84;;;25.16;44.78
74573;BME280;63071;51.526;-0.134;2022-10-26T10:03:44;100541.31;;;25.21;45.12
74573;BME280;63071;51.526;-0.134;2022-10-26T10:06:19;100543.22;;;25.16;45.09
74573;BME280;63071;51.526;-0.134;2022-10-26T10:09:14;100546.28;;;25.15;44.48
74573;BME280;63071;51.526;-0.134;2022-10-26T10:14:16;100546.66;;;25.13;45.39
74573;BME280;63071;51.526;-0.134;2022-10-26T10:16:53;100548.94;;;25.26;45.13
74573;BME280;63071;51.526;-0.134;2022-10-26T10:19:23;100567.66;;;25.29;44.65
74573;BME280;63071;51.526;-0.134;2022-10-26T10:21:53;100566.50;;;25.30;44.86
74573;BME280;63071;51.526;-0.134;2022-10-26T10:24:24;100578.72;;;25.38;44.69
74573;BME280;63071;51.526;-0.134;2022-10-26T10:29:39;100578.28;;;25.44;44.44
74573;BME280;63071;51.526;-0.134;2022-10-26T10:32:05;100595.50;;;25.43;45.16
74573;BME280;63071;51.526;-0.134;2022-10-26T10:34:38;100603.13;;;25.44;44.65
74573;BME280;63071;51.526;-0.134;2022-10-26T10:37:04;100587.50;;;25.35;44.94
74573;BME280;63071;51.526;-0.134;2022-10-26T10:42:03;100598.88;;;25.57;45.53
74573;BME280;63071;51.526;-0.134;2022-10-26T10:44:32;100613.38;;;25.60;44.93
74573;BME280;63071;51.526;-0.134;2022-10-26T10:47:03;100622.09;;;25.75;44.52
74573;BME280;63071;51.526;-0.134;2022-10-26T10:49:30;100616.41;;;25.69;45.18
74573;BME280;63071;51.526;-0.134;2022-10-26T10:51:58;100624.47;;;25.66;45.26
74573;BME280;63071;51.526;-0.134;2022-10-26T10:54:43;100629.34;;;25.82;44.39
74573;BME280;63071;51.526;-0.134;2022-10-26T11:00:05;100637.75;;;25.87;44.88
74573;BME280;63071;51.526;-0.134;2022-10-26T11:02:53;100649.59;;;25.83;44.80
74573;BME280;63071;51.526;-0.134;2022-10-26T11:08:27;100642.34;;;25.90;44.15
74573;BME280;63071;51.526;-0.134;2022-10-26T11:11:04;100643.06;;;25.94;44.63
74573;BME280;63071;51.526;-0.134;2022-10-26T11:13:38;100648.81;;;25.93;44.42
74573;BME280;63071;51.526;-0.134;2022-10-26T11:16:19;100661.75;;;26.05;44.06
74573;BME280;63071;51.526;-0.134;2022-10-26T11:21:38;100663.28;;;26.06;44.16
74573;BME280;63071;51.526;-0.134;2022-10-26T11:35:36;100674.75;;;26.10;42.82
74573;BME280;63071;51.526;-0.134;2022-10-26T11:38:16;100681.56;;;26.26;42.16
74573;BME280;63071;51.526;-0.134;2022-10-26T11:43:44;100691.13;;;26.23;42.92
74573;BME280;63071;51.526;-0.134;2022-10-26T11:51:50;100692.69;;;26.21;42.78
74573;BME280;63071;51.526;-0.134;2022-10-26T11:54:29;100703.78;;;26.15;42.60
74573;BME280;63071;51.526;-0.134;2022-10-26T11:56:57;100700.72;;;26.17;42.43
74573;BME280;63071;51.526;-0.134;2022-10-26T11:59:27;100727.53;;;26.13;41.73
74573;BME280;63071;51.526;-0.134;2022-10-26T12:02:05;100728.69;;;26.16;41.47
74573;BME280;63071;51.526;-0.134;2022-10-26T12:04:37;100719.09;;;26.15;41.73
74573;BME280;63071;51.526;-0.134;2022-10-26T12:07:13;100736.72;;;26.12;42.21
74573;BME280;63071;51.526;-0.134;2022-10-26T12:09:43;100740.53;;;26.11;41.66
74573;BME280;63071;51.526;-0.134;2022-10-26T12:15:09;100755.91;;;26.04;41.38
74573;BME280;63071;51.526;-0.134;2022-10-26T12:20:51;100756.66;;;26.08;41.45
74573;BME280;63071;51.526;-0.134;2022-10-26T12:23:18;100752.78;;;26.16;40.63
74573;BME280;63071;51.526;-0.134;2022-10-26T12:25:44;100734.78;;;26.16;40.89
74573;BME280;63071;51.526;-0.134;2022-10-26T12:28:39;100765.38;;;26.23;40.99
74573;BME280;63071;51.526;-0.134;2022-10-26T12:31:39;100758.91;;;26.16;40.81
74573;BME280;63071;51.526;-0.134;2022-10-26T12:34:12;100768.03;;;26.30;40.42
74573;BME280;63071;51.526;-0.134;2022-10-26T12:39:31;100788.31;;;26.24;40.31
74573;BME280;63071;51.526;-0.134;2022-10-26T12:47:08;100801.34;;;26.25;39.60
74573;BME280;63071;51.526;-0.134;2022-10-26T13:00:24;100810.53;;;26.28;39.14
74573;BME280;63071;51.526;-0.134;2022-10-26T13:08:42;100830.06;;;26.25;38.73
74573;BME280;63071;51.526;-0.134;2022-10-26T13:11:37;100810.97;;;26.08;38.88
74573;BME280;63071;51.526;-0.134;2022-10-26T13:14:06;100819.72;;;26.27;39.14
74573;BME280;63071;51.526;-0.134;2022-10-26T13:16:33;100823.16;;;26.24;38.93
74573;BME280;63071;51.526;-0.134;2022-10-26T13:19:00;100825.44;;;26.25;39.08
74573;BME280;63071;51.526;-0.134;2022-10-26T13:21:26;100839.53;;;26.44;38.79
74573;BME280;63071;51.526;-0.134;2022-10-26T13:26:20;100835.78;;;26.34;38.79
74573;BME280;63071;51.526;-0.134;2022-10-26T13:34:08;100845.25;;;26.49;37.91
74573;BME280;63071;51.526;-0.134;2022-10-26T13:39:13;100841.06;;;26.48;38.90
74573;BME280;63071;51.526;-0.134;2022-10-26T13:41:44;100842.25;;;26.36;39.74
74573;BME280;63071;51.526;-0.134;2022-10-26T13:44:33;100854.91;;;26.36;39.03
74573;BME280;63071;51.526;-0.134;2022-10-26T13:47:08;100851.44;;;26.39;38.89
74573;BME280;63071;51.526;-0.134;2022-10-26T13:49:49;100849.50;;;26.39;39.52
74573;BME280;63071;51.526;-0.134;2022-10-26T14:00:30;100866.25;;;26.72;37.81
74573;BME280;63071;51.526;-0.134;2022-10-26T14:02:56;100868.19;;;26.65;37.68
74573;BME280;63071;51.526;-0.134;2022-10-26T14:05:22;100855.59;;;26.54;37.95
74573;BME280;63071;51.526;-0.134;2022-10-26T14:07:54;100865.19;;;26.45;37.84
74573;BME280;63071;51.526;-0.134;2022-10-26T14:10:28;100859.84;;;26.41;37.83
74573;BME280;63071;51.526;-0.134;2022-10-26T14:12:55;100867.13;;;26.41;37.23
74573;BME280;63071;51.526;-0.134;2022-10-26T14:15:28;100871.34;;;26.38;36.75
74573;BME280;63071;51.526;-0.134;2022-10-26T14:17:56;100862.56;;;26.34;36.67
74573;BME280;63071;51.526;-0.134;2022-10-26T14:20:26;100864.09;;;26.31;36.48
74573;BME280;63071;51.526;-0.134;2022-10-26T14:22:53;100884.75;;;26.31;37.09
74573;BME280;63071;51.526;-0.134;2022-10-26T14:25:21;100897.78;;;26.29;37.09
74573;BME280;63071;51.526;-0.134;2022-10-26T14:27:47;100892.81;;;26.24;36.51
74573;BME280;63071;51.526;-0.134;2022-10-26T14:30:28;100891.63;;;26.35;36.78
74573;BME280;63071;51.526;-0.134;2022-10-26T14:32:55;100905.81;;;26.25;36.81
74573;BME280;63071;51.526;-0.134;2022-10-26T14:35:38;100884.41;;;26.22;36.82
74573;BME280;63071;51.526;-0.134;2022-10-26T14:38:16;100897.41;;;26.19;36.68
74573;BME280;63071;51.526;-0.134;2022-10-26T14:40:44;100905.06;;;26.21;36.35
74573;BME280;63071;51.526;-0.134;2022-10-26T14:43:19;100911.97;;;26.18;36.34
74573;BME280;63071;51.526;-0.134;2022-10-26T14:45:49;100905.50;;;26.12;36.03
74573;BME280;63071;51.526;-0.134;2022-10-26T14:48:27;100907.38;;;26.15;36.03
74573;BME280;63071;51.526;-0.134;2022-10-26T14:53:36;100927.28;;;26.14;36.16
74573;BME280;63071;51.526;-0.134;2022-10-26T14:56:03;100925.00;;;26.13;36.18
74573;BME280;63071;51.526;-0.134;2022-10-26T14:58:31;100923.84;;;26.10;36.76
74573;BME280;63071;51.526;-0.134;2022-10-26T15:03:52;100922.72;;;26.08;37.31
74573;BME280;63071;51.526;-0.134;2022-10-26T15:08:54;100926.50;;;26.21;36.97
74573;BME280;63071;51.526;-0.134;2022-10-26T15:11:20;100932.63;;;26.22;37.21
74573;BME280;63071;51.526;-0.134;2022-10-26T15:13:46;100929.97;;;26.18;37.05
74573;BME280;63071;51.526;-0.134;2022-10-26T15:16:19;100937.22;;;26.17;37.32
74573;BME280;63071;51.526;-0.134;2022-10-26T15:18:50;100929.22;;;26.14;37.12
74573;BME280;63071;51.526;-0.134;2022-10-26T15:21:31;100933.78;;;26.13;36.87
74573;BME280;63071;51.526;-0.134;2022-10-26T15:24:00;100932.66;;;26.11;36.92
74573;BME280;63071;51.526;-0.134;2022-10-26T15:26:27;100940.31;;;26.16;37.48
74573;BME280;63071;51.526;-0.134;2022-10-26T15:28:54;100950.63;;;26.17;37.04